sensor_id;sensor_type;location;lat;lon;timestamp;P1;durP1;ratioP1;P2;durP2;ratioP2
11422;SDS011;5768;51.476;7.210;2022-08-25T00:01:33;3.80;;;3.38;;
11422;SDS011;5768;51.476;7.210;2022-08-25T00:06:38;4.35;;;3.40;;
11422;SDS011;5768;51.476;7.210;2022-08-25T00:11:45;6.13;;;3.92;;
11422;SDS011;5768;51.476;7.210;2022-08-25T00:16:49;4.55;;;3.60;;
11422;SDS011;5768;51.476;7.210;2022-08-25T00:21:52;7.07;;;3.38;;
11422;SDS011;5768;51.476;7.210;2022-08-25T00:26:56;7.25;;;3.33;;
11422;SDS011;5768;51.476;7.210;2022-08-25T00:32:00;3.88;;;3.50;;
11422;SDS011;5768;51.476;7.210;2022-08-25T00:37:05;4.57;;;3.30;;
11422;SDS011;5768;51.476;7.210;2022-08-25T00:42:10;6.15;;;3.70;;
11422;SDS011;5768;51.476;7.210;2022-08-25T00:47:13;4.50;;;3.55;;
11422;SDS011;5768;51.476;7.210;2022-08-25T00:52:15;4.90;;;4.43;;
11422;SDS011;5768;51.476;7.210;2022-08-25T00:57:29;5.22;;;3.70;;
11422;SDS011;5768;51.476;7.210;2022-08-25T01:02:34;6.53;;;4.15;;
11422;SDS011;5768;51.476;7.210;2022-08-25T01:07:37;4.88;;;3.70;;
11422;SDS011;5768;51.476;7.210;2022-08-25T01:12:42;4.00;;;3.13;;
11422;SDS011;5768;51.476;7.210;2022-08-25T01:17:45;6.10;;;3.88;;
11422;SDS011;5768;51.476;7.210;2022-08-25T01:22:52;7.57;;;3.28;;
11422;SDS011;5768;51.476;7.210;2022-08-25T01:27:55;6.10;;;4.45;;
11422;SDS011;5768;51.476;7.210;2022-08-25T01:32:57;4.45;;;4.00;;
11422;SDS011;5768;51.476;7.210;2022-08-25T01:38:01;3.85;;;3.45;;
11422;SDS011;5768;51.476;7.210;2022-08-25T01:43:06;3.88;;;3.50;;
11422;SDS011;5768;51.476;7.210;2022-08-25T01:48:21;5.35;;;3.47;;
11422;SDS011;5768;51.476;7.210;2022-08-25T01:53:25;4.90;;;3.50;;
11422;SDS011;5768;51.476;7.210;2022-08-25T01:58:33;4.85;;;3.53;;
11422;SDS011;5768;51.476;7.210;2022-08-25T02:03:38;4.50;;;3.63;;
11422;SDS011;5768;51.476;7.210;2022-08-25T02:08:46;4.85;;;3.50;;
11422;SDS011;5768;51.476;7.210;2022-08-25T02:13:52;5.90;;;4.00;;
11422;SDS011;5768;51.476;7.210;2022-08-25T02:18:54;4.63;;;3.33;;
11422;SDS011;5768;51.476;7.210;2022-08-25T02:23:59;6.40;;;3.63;;
11422;SDS011;5768;51.476;7.210;2022-08-25T02:29:03;6.18;;;3.80;;
11422;SDS011;5768;51.476;7.210;2022-08-25T02:34:07;5.72;;;3.58;;
11422;SDS011;5768;51.476;7.210;2022-08-25T02:39:12;5.22;;;3.42;;
11422;SDS011;5768;51.476;7.210;2022-08-25T02:44:14;4.57;;;3.50;;
11422;SDS011;5768;51.476;7.210;2022-08-25T02:49:16;4.95;;;3.30;;
11422;SDS011;5768;51.476;7.210;2022-08-25T02:54:20;4.97;;;3.80;;
11422;SDS011;5768;51.476;7.210;2022-08-25T02:59:23;5.57;;;3.67;;
11422;SDS011;5768;51.476;7.210;2022-08-25T03:04:25;5.72;;;3.90;;
11422;SDS011;5768;51.476;7.210;2022-08-25T03:09:29;6.13;;;4.00;;
11422;SDS011;5768;51.476;7.210;2022-08-25T03:14:35;6.78;;;3.78;;
11422;SDS011;5768;51.476;7.210;2022-08-25T03:19:37;5.28;;;3.90;;
11422;SDS011;5768;51.476;7.210;2022-08-25T03:24:41;5.50;;;3.97;;
11422;SDS011;5768;51.476;7.210;2022-08-25T03:29:43;8.88;;;3.90;;
11422;SDS011;5768;51.476;7.210;2022-08-25T03:34:46;5.50;;;3.85;;
11422;SDS011;5768;51.476;7.210;2022-08-25T03:39:49;4.68;;;3.70;;
11422;SDS011;5768;51.476;7.210;2022-08-25T03:44:51;4.10;;;3.70;;
11422;SDS011;5768;51.476;7.210;2022-08-25T03:49:55;5.35;;;3.78;;
11422;SDS011;5768;51.476;7.210;2022-08-25T03:54:58;4.50;;;4.07;;
11422;SDS011;5768;51.476;7.210;2022-08-25T04:00:01;6.47;;;4.50;;
11422;SDS011;5768;51.476;7.210;2022-08-25T04:05:06;5.20;;;4.20;;
11422;SDS011;5768;51.476;7.210;2022-08-25T04:10:11;5.65;;;4.00;;
11422;SDS011;5768;51.476;7.210;2022-08-25T04:15:13;6.63;;;3.97;;
11422;SDS011;5768;51.476;7.210;2022-08-25T04:20:16;4.78;;;3.78;;
11422;SDS011;5768;51.476;7.210;2022-08-25T04:25:20;5.28;;;3.92;;
11422;SDS011;5768;51.476;7.210;2022-08-25T04:30:22;7.20;;;4.07;;
11422;SDS011;5768;51.476;7.210;2022-08-25T04:35:24;6.22;;;3.97;;
11422;SDS011;5768;51.476;7.210;2022-08-25T04:40:28;6.82;;;4.05;;
11422;SDS011;5768;51.476;7.210;2022-08-25T04:45:30;5.28;;;3.75;;
11422;SDS011;5768;51.476;7.210;2022-08-25T04:50:37;7.13;;;3.88;;
11422;SDS011;5768;51.476;7.210;2022-08-25T04:55:41;7.60;;;4.32;;
11422;SDS011;5768;51.476;7.210;2022-08-25T05:00:44;5.40;;;3.85;;
11422;SDS011;5768;51.476;7.210;2022-08-25T05:05:47;13.18;;;4.95;;
11422;SDS011;5768;51.476;7.210;2022-08-25T05:10:52;5.28;;;4.30;;
11422;SDS011;5768;51.476;7.210;2022-08-25T05:15:56;8.52;;;4.75;;
11422;SDS011;5768;51.476;7.210;2022-08-25T05:21:00;5.75;;;4.30;;
11422;SDS011;5768;51.476;7.210;2022-08-25T05:26:07;7.43;;;4.10;;
11422;SDS011;5768;51.476;7.210;2022-08-25T05:31:12;6.57;;;4.35;;
11422;SDS011;5768;51.476;7.210;2022-08-25T05:36:16;6.70;;;4.25;;
11422;SDS011;5768;51.476;7.210;2022-08-25T05:41:26;8.70;;;4.60;;
11422;SDS011;5768;51.476;7.210;2022-08-25T05:46:30;6.55;;;4.45;;
11422;SDS011;5768;51.476;7.210;2022-08-25T05:51:33;6.00;;;3.80;;
11422;SDS011;5768;51.476;7.210;2022-08-25T05:56:38;8.57;;;4.38;;
11422;SDS011;5768;51.476;7.210;2022-08-25T06:01:40;9.82;;;4.38;;
11422;SDS011;5768;51.476;7.210;2022-08-25T06:07:00;11.63;;;4.50;;
11422;SDS011;5768;51.476;7.210;2022-08-25T06:12:05;10.20;;;5.35;;
11422;SDS011;5768;51.476;7.210;2022-08-25T06:17:08;8.68;;;5.35;;
11422;SDS011;5768;51.476;7.210;2022-08-25T06:22:11;8.73;;;4.75;;
11422;SDS011;5768;51.476;7.210;2022-08-25T06:27:15;8.02;;;4.55;;
11422;SDS011;5768;51.476;7.210;2022-08-25T06:32:18;11.55;;;4.45;;
11422;SDS011;5768;51.476;7.210;2022-08-25T06:37:20;8.90;;;5.03;;
11422;SDS011;5768;51.476;7.210;2022-08-25T06:42:24;5.20;;;4.10;;
11422;SDS011;5768;51.476;7.210;2022-08-25T06:47:27;5.63;;;4.53;;
11422;SDS011;5768;51.476;7.210;2022-08-25T06:52:30;7.40;;;4.75;;
11422;SDS011;5768;51.476;7.210;2022-08-25T06:57:43;8.77;;;4.55;;
11422;SDS011;5768;51.476;7.210;2022-08-25T07:02:46;9.00;;;5.15;;
11422;SDS011;5768;51.476;7.210;2022-08-25T07:07:48;6.57;;;4.30;;
11422;SDS011;5768;51.476;7.210;2022-08-25T07:12:53;7.65;;;4.78;;
11422;SDS011;5768;51.476;7.210;2022-08-25T07:17:56;6.07;;;4.38;;
11422;SDS011;5768;51.476;7.210;2022-08-25T07:22:58;5.97;;;4.40;;
11422;SDS011;5768;51.476;7.210;2022-08-25T07:28:03;6.57;;;4.43;;
11422;SDS011;5768;51.476;7.210;2022-08-25T07:33:06;8.90;;;4.13;;
11422;SDS011;5768;51.476;7.210;2022-08-25T07:38:08;6.25;;;4.20;;
11422;SDS011;5768;51.476;7.210;2022-08-25T07:43:12;8.20;;;4.32;;
11422;SDS011;5768;51.476;7.210;2022-08-25T07:48:15;6.22;;;3.97;;
11422;SDS011;5768;51.476;7.210;2022-08-25T07:53:19;8.75;;;4.10;;
11422;SDS011;5768;51.476;7.210;2022-08-25T07:58:26;4.82;;;4.38;;
11422;SDS011;5768;51.476;7.210;2022-08-25T08:03:29;11.18;;;5.18;;
11422;SDS011;5768;51.476;7.210;2022-08-25T08:08:36;7.15;;;4.13;;
11422;SDS011;5768;51.476;7.210;2022-08-25T08:13:46;14.95;;;5.95;;
11422;SDS011;5768;51.476;7.210;2022-08-25T08:18:49;6.10;;;4.70;;
11422;SDS011;5768;51.476;7.210;2022-08-25T08:23:52;9.57;;;8.68;;
11422;SDS011;5768;51.476;7.210;2022-08-25T08:28:57;7.22;;;4.43;;
11422;SDS011;5768;51.476;7.210;2022-08-25T08:34:00;6.88;;;5.35;;
11422;SDS011;5768;51.476;7.210;2022-08-25T08:39:03;5.25;;;4.60;;
11422;SDS011;5768;51.476;7.210;2022-08-25T08:44:09;6.15;;;4.15;;
11422;SDS011;5768;51.476;7.210;2022-08-25T08:49:39;7.38;;;4.60;;
11422;SDS011;5768;51.476;7.210;2022-08-25T08:54:55;5.43;;;4.40;;
11422;SDS011;5768;51.476;7.210;2022-08-25T09:00:06;6.55;;;5.38;;
11422;SDS011;5768;51.476;7.210;2022-08-25T09:05:12;5.85;;;4.32;;
11422;SDS011;5768;51.476;7.210;2022-08-25T09:10:19;7.15;;;5.13;;
11422;SDS011;5768;51.476;7.210;2022-08-25T09:15:27;6.10;;;4.40;;
11422;SDS011;5768;51.476;7.210;2022-08-25T09:21:06;5.32;;;4.78;;
11422;SDS011;5768;51.476;7.210;2022-08-25T09:26:21;6.88;;;5.05;;
11422;SDS011;5768;51.476;7.210;2022-08-25T09:31:38;4.97;;;4.45;;
11422;SDS011;5768;51.476;7.210;2022-08-25T09:36:42;5.35;;;4.60;;
11422;SDS011;5768;51.476;7.210;2022-08-25T09:41:51;5.28;;;4.50;;
11422;SDS011;5768;51.476;7.210;2022-08-25T09:46:58;5.40;;;4.90;;
11422;SDS011;5768;51.476;7.210;2022-08-25T09:52:24;7.45;;;5.28;;
11422;SDS011;5768;51.476;7.210;2022-08-25T09:57:43;9.60;;;4.28;;
11422;SDS011;5768;51.476;7.210;2022-08-25T10:03:10;4.95;;;4.50;;
11422;SDS011;5768;51.476;7.210;2022-08-25T10:08:23;6.82;;;6.22;;
11422;SDS011;5768;51.476;7.210;2022-08-25T10:13:34;6.60;;;5.93;;
11422;SDS011;5768;51.476;7.210;2022-08-25T10:18:43;7.32;;;6.63;;
11422;SDS011;5768;51.476;7.210;2022-08-25T10:23:46;4.97;;;3.58;;
11422;SDS011;5768;51.476;7.210;2022-08-25T10:29:11;5.00;;;3.75;;
11422;SDS011;5768;51.476;7.210;2022-08-25T10:34:36;3.53;;;3.22;;
11422;SDS011;5768;51.476;7.210;2022-08-25T10:39:51;4.70;;;4.20;;
11422;SDS011;5768;51.476;7.210;2022-08-25T10:45:16;5.20;;;3.53;;
11422;SDS011;5768;51.476;7.210;2022-08-25T10:50:44;4.60;;;3.45;;
11422;SDS011;5768;51.476;7.210;2022-08-25T10:56:03;5.47;;;4.97;;
11422;SDS011;5768;51.476;7.210;2022-08-25T11:01:14;3.10;;;2.90;;
11422;SDS011;5768;51.476;7.210;2022-08-25T11:06:33;5.18;;;3.20;;
11422;SDS011;5768;51.476;7.210;2022-08-25T11:11:43;3.50;;;3.20;;
11422;SDS011;5768;51.476;7.210;2022-08-25T11:16:56;4.57;;;3.22;;
11422;SDS011;5768;51.476;7.210;2022-08-25T11:22:11;5.93;;;3.60;;
11422;SDS011;5768;51.476;7.210;2022-08-25T11:27:21;4.13;;;3.70;;
11422;SDS011;5768;51.476;7.210;2022-08-25T11:32:31;3.90;;;3.47;;
11422;SDS011;5768;51.476;7.210;2022-08-25T11:37:37;5.55;;;3.80;;
11422;SDS011;5768;51.476;7.210;2022-08-25T11:43:13;4.85;;;3.28;;
11422;SDS011;5768;51.476;7.210;2022-08-25T11:48:38;6.18;;;3.72;;
11422;SDS011;5768;51.476;7.210;2022-08-25T11:54:03;5.22;;;3.60;;
11422;SDS011;5768;51.476;7.210;2022-08-25T12:05:50;4.30;;;3.53;;
11422;SDS011;5768;51.476;7.210;2022-08-25T12:22:40;3.92;;;3.30;;
11422;SDS011;5768;51.476;7.210;2022-08-25T12:28:05;3.40;;;3.05;;
11422;SDS011;5768;51.476;7.210;2022-08-25T12:33:31;3.60;;;3.30;;
11422;SDS011;5768;51.476;7.210;2022-08-25T12:38:48;3.30;;;3.10;;
11422;SDS011;5768;51.476;7.210;2022-08-25T12:44:08;3.47;;;3.17;;
11422;SDS011;5768;51.476;7.210;2022-08-25T12:49:37;4.30;;;3.00;;
11422;SDS011;5768;51.476;7.210;2022-08-25T12:54:42;4.05;;;3.60;;
11422;SDS011;5768;51.476;7.210;2022-08-25T12:59:55;4.57;;;3.40;;
11422;SDS011;5768;51.476;7.210;2022-08-25T13:11:08;5.95;;;3.40;;
11422;SDS011;5768;51.476;7.210;2022-08-25T13:16:20;3.03;;;2.83;;
11422;SDS011;5768;51.476;7.210;2022-08-25T13:21:27;6.13;;;3.08;;
11422;SDS011;5768;51.476;7.210;2022-08-25T13:26:36;5.78;;;3.40;;
11422;SDS011;5768;51.476;7.210;2022-08-25T13:31:52;3.10;;;2.90;;
11422;SDS011;5768;51.476;7.210;2022-08-25T13:37:03;3.17;;;2.97;;
11422;SDS011;5768;51.476;7.210;2022-08-25T13:42:26;3.47;;;2.78;;
11422;SDS011;5768;51.476;7.210;2022-08-25T13:47:34;4.03;;;3.10;;
11422;SDS011;5768;51.476;7.210;2022-08-25T13:52:38;3.88;;;2.80;;
11422;SDS011;5768;51.476;7.210;2022-08-25T13:57:41;2.97;;;2.67;;
11422;SDS011;5768;51.476;7.210;2022-08-25T14:02:48;3.20;;;2.80;;
11422;SDS011;5768;51.476;7.210;2022-08-25T14:07:54;2.83;;;2.53;;
11422;SDS011;5768;51.476;7.210;2022-08-25T14:13:06;4.72;;;2.70;;
11422;SDS011;5768;51.476;7.210;2022-08-25T14:18:19;3.35;;;2.28;;
11422;SDS011;5768;51.476;7.210;2022-08-25T14:23:28;3.47;;;2.55;;
11422;SDS011;5768;51.476;7.210;2022-08-25T14:28:31;4.88;;;2.60;;
11422;SDS011;5768;51.476;7.210;2022-08-25T14:33:36;2.60;;;2.40;;
11422;SDS011;5768;51.476;7.210;2022-08-25T14:38:43;2.75;;;2.20;;
11422;SDS011;5768;51.476;7.210;2022-08-25T14:43:58;2.50;;;2.30;;
11422;SDS011;5768;51.476;7.210;2022-08-25T14:49:20;3.53;;;2.15;;
11422;SDS011;5768;51.476;7.210;2022-08-25T14:54:29;2.40;;;2.20;;
11422;SDS011;5768;51.476;7.210;2022-08-25T14:59:37;2.70;;;2.30;;
11422;SDS011;5768;51.476;7.210;2022-08-25T15:04:48;2.42;;;2.17;;
11422;SDS011;5768;51.476;7.210;2022-08-25T15:09:59;3.20;;;2.40;;
11422;SDS011;5768;51.476;7.210;2022-08-25T15:15:02;2.60;;;2.38;;
11422;SDS011;5768;51.476;7.210;2022-08-25T15:20:12;2.60;;;2.10;;
11422;SDS011;5768;51.476;7.210;2022-08-25T15:25:14;4.95;;;2.35;;
11422;SDS011;5768;51.476;7.210;2022-08-25T15:30:18;3.10;;;2.47;;
11422;SDS011;5768;51.476;7.210;2022-08-25T15:35:22;2.60;;;2.40;;
11422;SDS011;5768;51.476;7.210;2022-08-25T15:40:24;4.50;;;2.20;;
11422;SDS011;5768;51.476;7.210;2022-08-25T15:45:28;3.35;;;2.20;;
11422;SDS011;5768;51.476;7.210;2022-08-25T15:50:35;2.42;;;2.00;;
11422;SDS011;5768;51.476;7.210;2022-08-25T15:55:38;2.33;;;2.03;;
11422;SDS011;5768;51.476;7.210;2022-08-25T16:00:44;2.33;;;2.20;;
11422;SDS011;5768;51.476;7.210;2022-08-25T16:05:49;2.42;;;2.22;;
11422;SDS011;5768;51.476;7.210;2022-08-25T16:10:52;2.38;;;2.13;;
11422;SDS011;5768;51.476;7.210;2022-08-25T16:16:19;3.05;;;2.40;;
11422;SDS011;5768;51.476;7.210;2022-08-25T16:21:27;2.25;;;2.03;;
11422;SDS011;5768;51.476;7.210;2022-08-25T16:26:34;2.95;;;2.17;;
11422;SDS011;5768;51.476;7.210;2022-08-25T16:31:41;2.58;;;2.20;;
11422;SDS011;5768;51.476;7.210;2022-08-25T16:36:47;2.45;;;2.25;;
11422;SDS011;5768;51.476;7.210;2022-08-25T16:42:07;3.13;;;2.20;;
11422;SDS011;5768;51.476;7.210;2022-08-25T16:47:13;5.13;;;2.38;;
11422;SDS011;5768;51.476;7.210;2022-08-25T16:52:17;3.40;;;2.30;;
11422;SDS011;5768;51.476;7.210;2022-08-25T16:57:42;3.63;;;2.38;;
11422;SDS011;5768;51.476;7.210;2022-08-25T17:02:48;3.08;;;2.50;;
11422;SDS011;5768;51.476;7.210;2022-08-25T17:07:59;4.60;;;2.92;;
11422;SDS011;5768;51.476;7.210;2022-08-25T17:13:19;4.68;;;3.35;;
11422;SDS011;5768;51.476;7.210;2022-08-25T17:18:24;3.55;;;2.85;;
11422;SDS011;5768;51.476;7.210;2022-08-25T17:23:31;6.50;;;3.80;;
11422;SDS011;5768;51.476;7.210;2022-08-25T17:28:44;3.65;;;3.35;;
11422;SDS011;5768;51.476;7.210;2022-08-25T17:33:50;4.57;;;3.50;;
11422;SDS011;5768;51.476;7.210;2022-08-25T17:38:54;4.47;;;3.97;;
11422;SDS011;5768;51.476;7.210;2022-08-25T17:43:58;4.65;;;3.80;;
11422;SDS011;5768;51.476;7.210;2022-08-25T17:49:01;4.60;;;4.13;;
11422;SDS011;5768;51.476;7.210;2022-08-25T17:54:09;6.38;;;4.63;;
11422;SDS011;5768;51.476;7.210;2022-08-25T17:59:11;5.10;;;4.60;;
11422;SDS011;5768;51.476;7.210;2022-08-25T18:04:15;5.60;;;5.10;;
11422;SDS011;5768;51.476;7.210;2022-08-25T18:09:19;5.72;;;5.20;;
11422;SDS011;5768;51.476;7.210;2022-08-25T18:14:21;5.68;;;5.18;;
11422;SDS011;5768;51.476;7.210;2022-08-25T18:19:24;10.30;;;5.18;;
11422;SDS011;5768;51.476;7.210;2022-08-25T18:24:27;6.10;;;5.15;;
11422;SDS011;5768;51.476;7.210;2022-08-25T18:29:30;5.65;;;4.82;;
11422;SDS011;5768;51.476;7.210;2022-08-25T18:34:32;8.48;;;5.53;;
11422;SDS011;5768;51.476;7.210;2022-08-25T18:39:36;7.57;;;5.22;;
11422;SDS011;5768;51.476;7.210;2022-08-25T18:44:56;7.28;;;5.40;;
11422;SDS011;5768;51.476;7.210;2022-08-25T18:49:58;5.35;;;4.85;;
11422;SDS011;5768;51.476;7.210;2022-08-25T18:55:02;6.93;;;4.60;;
11422;SDS011;5768;51.476;7.210;2022-08-25T19:00:06;6.47;;;5.13;;
11422;SDS011;5768;51.476;7.210;2022-08-25T19:05:11;7.18;;;5.07;;
11422;SDS011;5768;51.476;7.210;2022-08-25T19:10:15;6.20;;;5.32;;
11422;SDS011;5768;51.476;7.210;2022-08-25T19:15:18;7.60;;;5.35;;
11422;SDS011;5768;51.476;7.210;2022-08-25T19:20:21;6.88;;;5.03;;
11422;SDS011;5768;51.476;7.210;2022-08-25T19:25:27;8.60;;;5.47;;
11422;SDS011;5768;51.476;7.210;2022-08-25T19:30:31;7.85;;;5.13;;
11422;SDS011;5768;51.476;7.210;2022-08-25T19:35:36;5.22;;;4.80;;
11422;SDS011;5768;51.476;7.210;2022-08-25T19:40:44;9.20;;;5.07;;
11422;SDS011;5768;51.476;7.210;2022-08-25T19:45:47;9.88;;;5.15;;
11422;SDS011;5768;51.476;7.210;2022-08-25T19:50:53;7.97;;;5.32;;
11422;SDS011;5768;51.476;7.210;2022-08-25T19:55:56;7.88;;;5.03;;
11422;SDS011;5768;51.476;7.210;2022-08-25T20:01:00;7.53;;;4.93;;
11422;SDS011;5768;51.476;7.210;2022-08-25T20:06:02;6.57;;;4.78;;
11422;SDS011;5768;51.476;7.210;2022-08-25T20:11:06;9.10;;;5.60;;
11422;SDS011;5768;51.476;7.210;2022-08-25T20:16:09;9.10;;;5.03;;
11422;SDS011;5768;51.476;7.210;2022-08-25T20:21:11;7.95;;;5.40;;
11422;SDS011;5768;51.476;7.210;2022-08-25T20:26:15;5.68;;;4.80;;
11422;SDS011;5768;51.476;7.210;2022-08-25T20:31:17;5.63;;;5.07;;
11422;SDS011;5768;51.476;7.210;2022-08-25T20:36:19;6.35;;;5.40;;
11422;SDS011;5768;51.476;7.210;2022-08-25T20:41:22;7.22;;;4.75;;
11422;SDS011;5768;51.476;7.210;2022-08-25T20:46:25;5.95;;;5.03;;
11422;SDS011;5768;51.476;7.210;2022-08-25T20:51:30;6.13;;;4.78;;
11422;SDS011;5768;51.476;7.210;2022-08-25T20:56:34;6.05;;;5.45;;
11422;SDS011;5768;51.476;7.210;2022-08-25T21:01:39;5.88;;;5.13;;
11422;SDS011;5768;51.476;7.210;2022-08-25T21:06:42;7.15;;;4.60;;
11422;SDS011;5768;51.476;7.210;2022-08-25T21:11:48;7.03;;;5.13;;
11422;SDS011;5768;51.476;7.210;2022-08-25T21:16:53;8.43;;;5.00;;
11422;SDS011;5768;51.476;7.210;2022-08-25T21:27:17;5.80;;;5.25;;
11422;SDS011;5768;51.476;7.210;2022-08-25T21:32:19;10.50;;;5.75;;
11422;SDS011;5768;51.476;7.210;2022-08-25T21:37:22;8.68;;;5.50;;
11422;SDS011;5768;51.476;7.210;2022-08-25T21:42:27;6.97;;;5.57;;
11422;SDS011;5768;51.476;7.210;2022-08-25T21:47:29;9.98;;;5.88;;
11422;SDS011;5768;51.476;7.210;2022-08-25T21:52:41;13.73;;;6.28;;
11422;SDS011;5768;51.476;7.210;2022-08-25T21:57:44;9.25;;;5.72;;
11422;SDS011;5768;51.476;7.210;2022-08-25T22:02:46;7.13;;;5.78;;
11422;SDS011;5768;51.476;7.210;2022-08-25T22:07:49;12.75;;;6.82;;
11422;SDS011;5768;51.476;7.210;2022-08-25T22:12:53;7.38;;;6.20;;
11422;SDS011;5768;51.476;7.210;2022-08-25T22:17:55;7.88;;;5.80;;
11422;SDS011;5768;51.476;7.210;2022-08-25T22:22:57;7.72;;;5.95;;
11422;SDS011;5768;51.476;7.210;2022-08-25T22:28:01;6.97;;;6.05;;
11422;SDS011;5768;51.476;7.210;2022-08-25T22:33:05;9.82;;;6.82;;
11422;SDS011;5768;51.476;7.210;2022-08-25T22:38:08;8.85;;;6.25;;
11422;SDS011;5768;51.476;7.210;2022-08-25T22:43:11;8.55;;;6.55;;
11422;SDS011;5768;51.476;7.210;2022-08-25T22:48:14;8.80;;;6.57;;
11422;SDS011;5768;51.476;7.210;2022-08-25T22:53:16;8.40;;;7.07;;
11422;SDS011;5768;51.476;7.210;2022-08-25T22:58:19;7.90;;;6.88;;
11422;SDS011;5768;51.476;7.210;2022-08-25T23:03:21;7.70;;;6.55;;
11422;SDS011;5768;51.476;7.210;2022-08-25T23:08:24;11.80;;;7.55;;
11422;SDS011;5768;51.476;7.210;2022-08-25T23:13:27;9.38;;;7.28;;
11422;SDS011;5768;51.476;7.210;2022-08-25T23:18:30;11.00;;;7.20;;
11422;SDS011;5768;51.476;7.210;2022-08-25T23:23:33;7.57;;;6.78;;
11422;SDS011;5768;51.476;7.210;2022-08-25T23:28:37;9.88;;;7.10;;
11422;SDS011;5768;51.476;7.210;2022-08-25T23:33:40;9.00;;;7.38;;
11422;SDS011;5768;51.476;7.210;2022-08-25T23:38:43;8.15;;;7.35;;
11422;SDS011;5768;51.476;7.210;2022-08-25T23:43:49;8.27;;;7.45;;
11422;SDS011;5768;51.476;7.210;2022-08-25T23:48:52;9.95;;;7.55;;
11422;SDS011;5768;51.476;7.210;2022-08-25T23:53:55;10.70;;;7.03;;
11422;SDS011;5768;51.476;7.210;2022-08-25T23:58:59;7.63;;;6.93;;
